Latest Weather Observations for Khancoban

IDN60801

Issued at 4:42 pm EST Thursday 18 July 2019 (issued every 10 minutes, with the page automatically refreshed every 10 minutes)

About weather observations | Map of weather stations | Latest weather observations for NSW | Other Formats
Station Details ID: 072162 Name: KHANCOBAN AWS Lat: -36.23 Lon: 148.14 Height: 339.3 m
Data from the previous 72 hours. | See also: Recent months at Khancoban
Date/Time
EST
Temp
°C
App
Temp
°C
Dew
Point
°C
Rel
Hum
%
Delta-T
°C
Wind Press
QNH
hPa
Press
MSL
hPa
Rain since
9am
mm
Dir  Spd
km/h
Gust
km/h
Spd
kts
Gust
kts
18/04:30pm 10.3 6.6 4.7 68 2.6 NNW 13 19 7 10 1018.0 1018.8 0.0
18/04:00pm 10.4 7.9 5.0 69 2.5 N 7 11 4 6 1017.8 1018.6 0.0
18/03:30pm 10.8 7.0 4.0 63 3.1 NNW 13 17 7 9 1017.4 1018.2 0.0
18/03:00pm 12.1 8.6 5.3 63 3.2 NW 13 19 7 10 1017.5 1018.3 0.0
18/02:30pm 11.1 7.8 4.8 65 2.9 NW 11 15 6 8 1017.7 1018.5 0.0
18/02:00pm 11.2 7.5 4.4 63 3.1 NW 13 19 7 10 1017.5 1018.3 0.0
18/01:30pm 11.8 8.4 3.8 58 3.6 NW 11 13 6 7 1017.4 1018.2 0.0
18/01:00pm 11.1 7.9 5.0 66 2.8 NW 11 15 6 8 1017.5 1018.3 0.0
18/12:30pm 11.2 7.8 6.1 71 2.4 NW 13 19 7 10 1017.7 1018.5 0.0
18/12:00pm 10.8 8.4 4.5 65 2.9 NNW 6 9 3 5 1017.8 1018.6 0.0
18/11:30am 10.7 8.4 4.6 66 2.8 N 6 11 3 6 1018.4 1019.1 0.0
18/11:00am 10.6 8.6 6.4 75 2.0 NW 6 9 3 5 1018.5 1019.2 0.0
18/10:30am 10.0 7.8 6.0 76 1.9 NNW 7 11 4 6 1018.9 1019.6 0.0
18/10:00am 9.5 7.0 6.4 81 1.5 NW 9 11 5 6 1019.0 1019.7 0.0
18/09:30am 9.1 7.7 7.1 87 1.0 NNW 4 9 2 5 1018.5 1019.2 0.0
18/09:00am 6.8 6.1 6.8 100 0.0 CALM 0 0 0 0 1018.2 1019.0 7.4
18/08:30am 6.2 5.3 6.2 100 0.0 CALM 0 6 0 3 1017.9 1018.7 7.4
18/08:00am 6.5 5.7 6.4 99 0.0 CALM 0 0 0 0 1017.8 1018.6 7.4
18/07:30am 7.2 6.5 6.9 98 0.1 CALM 0 0 0 0 1017.6 1018.4 7.4
18/07:00am 7.1 6.0 7.0 99 0.0 WNW 2 6 1 3 1017.3 1018.1 7.4
18/06:30am 7.4 6.8 7.4 100 0.0 CALM 0 0 0 0 1016.8 1017.5 7.4
18/06:00am 7.3 6.7 7.3 100 0.0 CALM 0 0 0 0 1016.4 1017.1 7.4
18/05:30am 7.2 5.8 7.2 100 0.0 N 4 7 2 4 1016.3 1017.0 7.4
18/05:00am 7.0 6.3 7.0 100 0.0 CALM 0 4 0 2 1016.0 1016.7 7.4
18/04:30am 7.3 5.3 7.3 100 0.0 WSW 7 11 4 6 1016.1 1016.8 7.4
18/04:00am 7.5 6.2 7.5 100 0.0 ENE 4 7 2 4 1015.9 1016.6 7.4
18/03:30am 7.1 5.3 7.1 100 0.0 NE 6 9 3 5 1015.8 1016.5 7.4
18/03:00am 7.2 5.4 7.2 100 0.0 SE 6 7 3 4 1015.9 1016.6 7.4
18/02:30am 6.8 4.9 6.8 100 0.0 NNE 6 9 3 5 1016.0 1016.7 7.4
18/02:00am 7.2 6.6 7.2 100 0.0 CALM 0 4 0 2 1015.9 1016.6 7.2
18/01:30am 7.6 5.9 7.6 100 0.0 ESE 6 9 3 5 1015.7 1016.4 7.2
18/01:00am 8.3 6.8 8.3 100 0.0 NE 6 11 3 6 1015.9 1016.6 7.2
18/12:30am 8.2 7.0 8.2 100 0.0 W 4 7 2 4 1015.7 1016.4 6.6
18/12:00am 8.2 6.5 8.2 100 0.0 NNE 7 9 4 5 1015.4 1016.1 6.6
 
Date/Time
EST
Temp
°C
App
Temp
°C
Dew
Point
°C
Rel
Hum
%
Delta-T
°C
Wind Press
QNH
hPa
Press
MSL
hPa
Rain since
9am
mm
Dir  Spd
km/h
Gust
km/h
Spd
kts
Gust
kts
17/11:30pm 8.0 6.4 8.0 100 0.0 WNW 6 7 3 4 1015.8 1016.5 6.6
17/11:00pm 7.9 7.4 7.9 100 0.0 CALM 0 0 0 0 1015.8 1016.5 6.2
17/10:30pm 8.0 7.2 8.0 100 0.0 NNE 2 6 1 3 1015.8 1016.5 5.8
17/10:00pm 8.0 6.4 8.0 100 0.0 SSW 6 7 3 4 1015.8 1016.5 5.6
17/09:30pm 7.8 6.2 7.8 100 0.0 WNW 6 9 3 5 1015.8 1016.5 5.6
17/09:00pm 8.0 6.2 8.0 100 0.0 NE 7 11 4 6 1015.3 1016.0 5.6
17/08:30pm 7.8 6.0 7.8 100 0.0 SSE 7 9 4 5 1016.1 1016.8 5.4
17/08:00pm 7.8 7.3 7.8 100 0.0 CALM 0 0 0 0 1015.9 1016.6 5.0
17/07:30pm 8.0 7.1 7.9 99 0.0 WNW 2 7 1 4 1015.6 1016.3 4.0
17/07:00pm 7.9 6.1 7.8 99 0.0 N 7 11 4 6 1015.9 1016.6 3.4
17/06:30pm 8.3 5.6 7.5 95 0.4 N 11 17 6 9 1015.8 1016.5 3.2
17/06:00pm 8.0 5.8 7.9 99 0.0 NW 9 13 5 7 1015.9 1016.6 2.4
17/05:30pm 7.9 5.7 7.8 99 0.0 NE 9 13 5 7 1015.8 1016.5 2.2
17/05:00pm 7.7 6.8 7.6 99 0.0 NNE 2 9 1 5 1016.0 1016.7 1.0
17/04:30pm 8.0 6.1 7.4 96 0.3 NNE 7 11 4 6 1015.9 1016.6 0.4
17/04:00pm 8.4 5.9 6.7 89 0.8 N 9 15 5 8 1016.0 1016.7 0.0
17/03:30pm 9.0 4.4 5.7 80 1.5 N 19 24 10 13 1016.0 1016.7 0.0
17/03:00pm 10.4 5.8 3.9 64 2.9 NNW 17 20 9 11 1016.0 1016.7 0.0
17/02:30pm 10.6 6.2 4.5 66 2.8 N 17 26 9 14 1015.9 1016.6 0.0
17/02:00pm 11.0 6.2 4.7 65 2.9 NNW 19 26 10 14 1016.2 1016.9 0.0
17/01:30pm 10.7 6.2 4.0 63 3.0 NNW 17 24 9 13 1016.8 1017.5 0.0
17/01:00pm 11.0 6.8 5.5 69 2.6 NNW 17 24 9 13 1017.3 1018.1 0.0
17/12:30pm 10.3 6.5 5.7 73 2.2 NW 15 22 8 12 1018.0 1018.8 0.0
17/12:00pm 11.0 5.8 5.3 68 2.7 NW 22 32 12 17 1018.1 1018.9 0.0
17/11:30am 12.3 8.2 8.0 75 2.2 NNW 19 28 10 15 1018.7 1019.4 0.0
17/11:00am 10.6 7.0 6.7 77 1.9 NW 15 20 8 11 1019.4 1020.1 0.0
17/10:30am 9.8 6.3 7.1 83 1.3 WNW 15 20 8 11 1019.7 1020.5 0.0
17/10:00am 10.1 7.9 6.4 78 1.8 NNW 7 11 4 6 1020.4 1021.2 0.0
17/09:30am 9.6 8.6 7.2 85 1.2 NW 2 7 1 4 1020.7 1021.5 0.0
17/09:00am 8.9 8.3 7.4 90 0.7 CALM 0 0 0 0 1020.6 1021.4 0.0
17/08:30am 7.9 7.0 7.9 100 0.0 N 2 7 1 4 1020.6 1021.4 0.0
17/08:00am 7.3 6.7 7.3 100 0.0 CALM 0 0 0 0 1020.4 1021.2 0.0
17/07:30am 6.9 6.2 6.9 100 0.0 CALM 0 2 0 1 1020.5 1021.3 0.0
17/07:00am 7.0 5.2 7.0 100 0.0 SSE 6 7 3 4 1020.4 1021.2 0.0
17/06:30am 6.8 4.4 6.8 100 0.0 SW 9 15 5 8 1020.3 1021.1 0.0
17/06:00am 6.3 5.5 6.3 100 0.0 CALM 0 0 0 0 1020.2 1021.0 0.0
17/05:30am 6.6 5.8 6.6 100 0.0 CALM 0 0 0 0 1020.3 1021.1 0.0
17/05:00am 6.6 5.8 6.5 99 0.0 CALM 0 0 0 0 1020.4 1021.2 0.0
17/04:30am 7.4 6.8 7.4 100 0.0 CALM 0 0 0 0 1020.4 1021.2 0.0
17/04:00am 7.5 6.9 7.4 99 0.0 CALM 0 0 0 0 1020.5 1021.3 0.0
17/03:30am 7.9 7.0 7.6 98 0.1 NE 2 6 1 3 1020.8 1021.6 0.0
17/03:00am 7.8 7.3 7.7 99 0.0 CALM 0 0 0 0 1020.8 1021.6 0.0
17/02:30am 8.1 7.5 7.3 95 0.4 CALM 0 0 0 0 1020.9 1021.7 0.0
17/02:00am 8.1 7.2 6.2 88 0.9 CALM 0 0 0 0 1021.1 1021.9 0.0
17/01:30am 9.0 8.3 7.0 87 1.0 CALM 0 0 0 0 1021.2 1022.0 0.0
17/01:00am 9.1 8.0 6.7 85 1.1 NNE 2 6 1 3 1021.1 1021.9 0.0
17/12:30am 9.0 7.8 6.6 85 1.1 NNE 2 6 1 3 1021.3 1022.1 0.0
17/12:00am 9.6 7.7 6.5 81 1.5 NNE 6 9 3 5 1021.6 1022.3 0.0
 
Date/Time
EST
Temp
°C
App
Temp
°C
Dew
Point
°C
Rel
Hum
%
Delta-T
°C
Wind Press
QNH
hPa
Press
MSL
hPa
Rain since
9am
mm
Dir  Spd
km/h
Gust
km/h
Spd
kts
Gust
kts
16/11:30pm 9.4 6.9 6.5 82 1.4 NNE 9 11 5 6 1021.8 1022.5 0.0
16/11:00pm 9.8 6.9 6.7 81 1.5 NNE 11 13 6 7 1021.7 1022.4 0.0
16/10:30pm 9.8 7.4 6.9 82 1.4 NNE 9 11 5 6 1021.8 1022.5 0.0
16/10:00pm 10.1 7.7 6.8 80 1.6 N 9 11 5 6 1021.7 1022.4 0.0
16/09:30pm 10.3 8.9 7.2 81 1.5 NNE 4 7 2 4 1021.7 1022.4 0.0
16/09:00pm 10.0 9.0 7.4 84 1.3 NE 2 7 1 4 1021.7 1022.4 0.0
16/08:30pm 10.3 8.6 7.4 82 1.4 NE 6 7 3 4 1021.6 1022.3 0.0
16/08:00pm 10.3 9.7 7.2 81 1.5 CALM 0 6 0 3 1021.7 1022.4 0.0
16/07:30pm 10.7 8.9 7.0 78 1.8 NW 6 15 3 8 1021.7 1022.4 0.0
16/07:00pm 10.6 9.2 7.3 80 1.6 NNE 4 11 2 6 1021.5 1022.2 0.0
16/06:30pm 10.2 9.6 7.3 82 1.4 CALM 0 0 0 0 1021.3 1022.1 0.0
16/06:00pm 10.4 9.4 7.3 81 1.5 NE 2 6 1 3 1020.9 1021.7 0.0
16/05:30pm 10.5 8.1 7.0 79 1.7 NNE 9 11 5 6 1020.6 1021.4 0.0
16/05:00pm 10.9 8.8 6.8 76 2.0 N 7 13 4 7 1020.5 1021.3 0.0
16/04:30pm 11.0 9.0 6.9 76 2.0 NNE 7 11 4 6 1020.6 1021.4 0.0
16/04:00pm 11.4 9.5 6.7 73 2.3 N 6 9 3 5 1020.6 1021.4 0.0
16/03:30pm 11.7 10.2 6.8 72 2.4 NE 4 7 2 4 1020.5 1021.3 0.0
16/03:00pm 11.7 10.0 5.8 67 2.8 NNE 4 9 2 5 1020.4 1021.2 0.0
16/02:30pm 11.7 10.1 6.2 69 2.6 NW 4 7 2 4 1020.3 1021.1 0.0
16/02:00pm 11.4 8.8 6.1 70 2.5 NW 9 13 5 7 1020.5 1021.3 0.0
16/01:30pm 11.8 8.5 6.5 70 2.6 NNW 13 20 7 11 1020.7 1021.5 0.0
16/01:00pm 12.4 9.2 6.7 68 2.8 NNW 13 19 7 10 1020.7 1021.5 0.0
16/12:30pm 11.1 8.2 6.6 74 2.2 N 11 17 6 9 1020.9 1021.7 0.0
16/12:00pm 11.2 8.2 6.1 71 2.4 NW 11 15 6 8 1021.6 1022.3 0.0
16/11:30am 11.1 10.0 7.0 76 2.0 NNE 2 9 1 5 1022.0 1022.8 0.0
16/11:00am 10.5 9.9 7.4 81 1.5 CALM 0 0 0 0 1022.5 1023.3 0.0
16/10:30am 9.9 8.2 7.5 85 1.2 SSW 6 7 3 4 1022.3 1023.1 0.0
16/10:00am 9.3 8.7 7.6 89 0.8 CALM 0 0 0 0 1022.3 1023.1 0.0
16/09:30am 8.6 8.1 7.8 95 0.4 CALM 0 0 0 0 1022.2 1023.0 0.0
16/09:00am 7.8 7.3 7.8 100 0.0 CALM 0 0 0 0 1022.2 1023.0 0.0
16/08:30am 7.2 6.6 7.2 100 0.0 CALM 0 0 0 0 1022.1 1022.9 0.0
16/08:00am 7.0 6.3 7.0 100 0.0 CALM 0 0 0 0 1022.0 1022.8 0.0
16/07:30am 6.7 5.9 6.7 100 0.0 CALM 0 0 0 0 1021.9 1022.6 0.0
16/07:00am 6.8 6.1 6.8 100 0.0 CALM 0 0 0 0 1021.6 1022.3 0.0
16/06:30am 6.8 6.1 6.8 100 0.0 CALM 0 0 0 0 1021.5 1022.2 0.0
16/06:00am 6.8 6.1 6.8 100 0.0 CALM 0 0 0 0 1021.1 1021.9 0.0
16/05:30am 6.9 6.2 6.9 100 0.0 CALM 0 0 0 0 1021.0 1021.8 0.0
16/05:00am 6.9 6.2 6.9 100 0.0 CALM 0 0 0 0 1021.0 1021.8 0.0
16/04:30am 7.1 5.7 7.1 100 0.0 S 4 6 2 3 1021.2 1022.0 0.0
16/04:00am 7.0 6.3 7.0 100 0.0 CALM 0 0 0 0 1021.5 1022.2 0.0
16/03:30am 7.1 6.0 7.1 100 0.0 S 2 6 1 3 1021.7 1022.4 0.0
16/03:00am 7.1 6.4 7.1 100 0.0 CALM 0 0 0 0 1021.8 1022.5 0.0
16/02:30am 7.2 6.6 7.2 100 0.0 CALM 0 0 0 0 1022.0 1022.8 0.0
16/02:00am 7.1 6.4 7.1 100 0.0 CALM 0 0 0 0 1022.2 1023.0 0.0
16/01:30am 7.3 6.7 7.3 100 0.0 CALM 0 0 0 0 1022.5 1023.3 0.0
16/01:00am 7.5 5.8 7.5 100 0.0 SSE 6 7 3 4 1022.8 1023.6 0.0
16/12:30am 7.2 6.6 7.2 100 0.0 CALM 0 0 0 0 1022.8 1023.6 0.0
16/12:00am 7.2 5.4 7.2 100 0.0 S 6 7 3 4 1023.0 1023.8 0.0
 
Date/Time
EST
Temp
°C
App
Temp
°C
Dew
Point
°C
Rel
Hum
%
Delta-T
°C
Wind Press
QNH
hPa
Press
MSL
hPa
Rain since
9am
mm
Dir  Spd
km/h
Gust
km/h
Spd
kts
Gust
kts
15/11:30pm 7.5 6.9 7.5 100 0.0 CALM 0 0 0 0 1023.2 1024.0 0.0
15/11:00pm 7.5 6.9 7.4 99 0.0 CALM 0 0 0 0 1023.4 1024.2 0.0
15/10:30pm 7.4 6.8 7.3 99 0.0 CALM 0 0 0 0 1023.4 1024.2 0.0
15/10:00pm 7.4 6.8 7.3 99 0.0 CALM 0 0 0 0 1023.1 1023.9 0.0
15/09:30pm 7.5 6.5 7.2 98 0.1 WNW 2 7 1 4 1023.2 1024.0 0.0
15/09:00pm 7.4 6.7 7.0 97 0.2 CALM 0 0 0 0 1023.1 1023.9 0.0
15/08:30pm 7.6 6.1 6.9 95 0.3 W 4 7 2 4 1022.9 1023.7 0.0
15/08:00pm 7.8 7.0 6.4 91 0.7 CALM 0 0 0 0 1022.8 1023.6 0.0
15/07:30pm 7.8 5.8 6.4 91 0.7 W 6 9 3 5 1022.9 1023.7 0.0
15/07:00pm 8.5 6.4 6.0 84 1.2 NNW 6 7 3 4 1022.6 1023.4 0.0
15/06:30pm 8.4 6.0 5.3 81 1.4 NW 7 9 4 5 1022.0 1022.8 0.0
15/06:00pm 9.2 6.9 5.6 78 1.7 NNE 7 13 4 7 1021.7 1022.4 0.0
15/05:30pm 9.5 6.8 5.5 76 1.9 NE 9 13 5 7 1021.3 1022.1 0.0
15/05:00pm 10.5 7.6 4.4 66 2.8 NE 9 13 5 7 1020.9 1021.7 0.0

Other formats

Comma delimited format used in spreadsheet applications
http://www.bom.gov.au/fwo/IDN60801/IDN60801.94919.axf

JavaScript Object Notation format (JSON) in row-major order
http://www.bom.gov.au/fwo/IDN60801/IDN60801.94919.json

Data quality

Most of these data are generated automatically and are frequently updated. Quality checks on data are not normally performed. It is possible for incorrect values to appear. Refer to information at About Latest Weather Observations and please check the disclaimer before using these data.